Time;durP1;ratioP1;P1;durP2;ratioP2;P2;SDS_P1;SDS_P2;PMS_P1;PMS_P2;Temp;Humidity;BMP_temperature;BMP_pressure;BME280_temperature;BME280_humidity;BME280_pressure;Samples;Min_cycle;Max_cycle;Signal;HPM_P1;HPM_P2
2022/09/25 00:01:24;;;;;;;3.47;2.03;;;;;;;21.90;47.16;101584.31;5034735;28;20112;-70
2022/09/25 00:03:49;;;;;;;4.60;2.30;;;;;;;21.86;47.06;101578.53;5026970;28;20053;-70
2022/09/25 00:06:19;;;;;;;5.40;2.03;;;;;;;21.83;47.12;101575.41;5032822;28;20045;-70
2022/09/25 00:08:45;;;;;;;4.07;2.17;;;;;;;21.83;47.11;101576.25;5036596;28;20041;-71
2022/09/25 00:11:14;;;;;;;3.78;2.40;;;;;;;21.80;46.97;101576.59;5035809;28;20531;-70
2022/09/25 00:13:40;;;;;;;2.88;1.90;;;;;;;21.76;47.20;101564.69;5043073;28;20663;-72
2022/09/25 00:16:09;;;;;;;4.03;2.63;;;;;;;21.80;46.98;101578.44;5055024;28;20122;-70
2022/09/25 00:21:19;;;;;;;3.33;2.00;;;;;;;21.82;47.22;101579.91;5036655;28;20044;-70
2022/09/25 00:23:45;;;;;;;4.20;2.10;;;;;;;21.79;47.20;101585.56;5034117;28;20033;-69
2022/09/25 00:26:13;;;;;;;3.40;2.10;;;;;;;21.81;47.36;101585.38;5035960;28;20055;-70
2022/09/25 00:28:40;;;;;;;2.75;2.10;;;;;;;21.78;46.97;101583.09;5033088;28;20100;-71
2022/09/25 00:31:08;;;;;;;5.13;2.17;;;;;;;21.76;47.38;101580.59;5032947;28;20040;-70
2022/09/25 00:33:34;;;;;;;2.28;1.83;;;;;;;21.74;47.42;101579.13;5038266;28;20493;-71
2022/09/25 00:36:05;;;;;;;4.10;2.20;;;;;;;21.78;47.10;101583.91;5040256;28;20038;-71
2022/09/25 00:38:33;;;;;;;3.95;1.83;;;;;;;21.75;47.18;101584.25;5032028;28;20037;-70
2022/09/25 00:40:59;;;;;;;3.72;1.90;;;;;;;21.78;47.31;101583.09;5039626;28;20037;-70
2022/09/25 00:43:40;;;;;;;4.57;2.42;;;;;;;21.73;47.12;101574.84;5043141;28;20122;-71
2022/09/25 00:46:35;;;;;;;4.30;2.10;;;;;;;21.75;47.41;101580.78;5031865;28;20069;-70
2022/09/25 00:49:03;;;;;;;3.95;1.83;;;;;;;21.75;47.34;101584.25;5034740;28;21208;-70
2022/09/25 00:51:44;;;;;;;5.35;2.35;;;;;;;21.74;46.98;101579.13;5036193;28;20039;-71
2022/09/25 00:54:15;;;;;;;4.25;2.17;;;;;;;21.73;47.05;101578.31;5034810;28;20041;-70
2022/09/25 00:56:43;;;;;;;4.43;2.17;;;;;;;21.66;47.19;101574.69;5035488;28;20041;-70
2022/09/25 00:59:14;;;;;;;4.05;2.05;;;;;;;21.72;47.15;101573.97;5033997;28;20116;-70
2022/09/25 01:01:40;;;;;;;3.28;1.98;;;;;;;21.71;46.98;101582.94;5033247;28;20048;-70
2022/09/25 01:04:06;;;;;;;4.43;2.20;;;;;;;21.69;47.10;101579.63;5038791;28;20034;-70
2022/09/25 01:06:34;;;;;;;2.80;2.08;;;;;;;21.73;47.14;101588.09;5035341;28;20094;-70
2022/09/25 01:09:00;;;;;;;3.10;2.10;;;;;;;21.69;47.38;101588.41;5031805;28;20804;-70
2022/09/25 01:11:26;;;;;;;3.38;2.38;;;;;;;21.68;47.24;101586.75;5029735;28;20072;-71
2022/09/25 01:13:57;;;;;;;3.08;2.00;;;;;;;21.60;47.30;101578.88;5035548;28;20800;-71
2022/09/25 01:16:44;;;;;;;3.80;2.17;;;;;;;21.67;47.41;101587.75;5030699;28;20119;-70
2022/09/25 01:19:47;;;;;;;3.65;2.03;;;;;;;21.65;46.97;101581.81;5030160;28;20041;-71
2022/09/25 01:22:25;;;;;;;3.35;2.10;;;;;;;21.67;47.30;101584.28;5031135;28;20032;-70
2022/09/25 01:25:25;;;;;;;3.75;2.08;;;;;;;21.67;47.06;101590.41;5030996;28;20052;-70
2022/09/25 01:28:09;;;;;;;4.28;2.28;;;;;;;21.62;47.42;101587.47;5033456;28;20143;-71
2022/09/25 01:30:40;;;;;;;5.10;2.15;;;;;;;21.62;47.25;101582.16;5033665;28;20075;-71
2022/09/25 01:33:33;;;;;;;4.40;1.98;;;;;;;21.57;47.09;101568.63;5031825;28;20049;-71
2022/09/25 01:36:11;;;;;;;2.40;1.90;;;;;;;21.60;47.02;101572.75;5034756;28;20045;-69
2022/09/25 01:38:50;;;;;;;2.10;1.80;;;;;;;21.57;47.21;101576.56;5039514;28;20036;-70
2022/09/25 01:41:33;;;;;;;2.60;1.85;;;;;;;21.65;46.87;101575.69;5035128;28;20254;-70
2022/09/25 01:44:06;;;;;;;2.83;1.98;;;;;;;21.60;46.94;101576.22;5042313;28;20036;-70
2022/09/25 01:46:41;;;;;;;3.80;1.98;;;;;;;21.61;47.25;101571.75;5045448;28;20142;-70
2022/09/25 01:49:30;;;;;;;2.88;1.85;;;;;;;21.63;47.07;101577.69;5039745;28;20032;-70
2022/09/25 01:51:59;;;;;;;3.08;1.98;;;;;;;21.61;47.31;101580.50;5042605;28;20041;-71
2022/09/25 01:54:34;;;;;;;4.25;2.22;;;;;;;21.62;47.14;101576.88;5039369;28;20064;-70
2022/09/25 01:57:11;;;;;;;3.28;1.98;;;;;;;21.59;46.90;101571.09;5041257;28;20049;-69
2022/09/25 01:59:43;;;;;;;3.83;1.92;;;;;;;21.58;47.14;101577.38;5038336;28;20044;-71
2022/09/25 02:02:14;;;;;;;2.83;2.00;;;;;;;21.59;47.29;101576.38;5042842;28;20033;-70
2022/09/25 02:04:50;;;;;;;2.70;1.90;;;;;;;21.59;47.17;101573.75;5043715;28;20481;-71
2022/09/25 02:07:22;;;;;;;2.88;1.90;;;;;;;21.56;47.30;101572.25;5036236;28;20032;-70
2022/09/25 02:09:51;;;;;;;3.13;1.80;;;;;;;21.57;47.40;101563.31;5041147;28;20106;-71
2022/09/25 02:12:27;;;;;;;2.33;1.90;;;;;;;21.58;47.20;101564.97;5035740;28;20037;-70
2022/09/25 02:15:20;;;;;;;1.95;1.60;;;;;;;21.59;47.23;101563.13;5039255;28;20520;-70
2022/09/25 02:20:35;;;;;;;3.00;1.77;;;;;;;21.53;47.20;101559.34;5038805;28;20543;-70
2022/09/25 02:23:17;;;;;;;3.90;2.20;;;;;;;21.54;47.05;101557.50;5059403;28;20052;-70
2022/09/25 02:25:59;;;;;;;2.03;1.50;;;;;;;21.54;47.13;101562.81;5035203;28;20057;-70
2022/09/25 02:28:24;;;;;;;1.92;1.63;;;;;;;21.56;47.05;101560.84;5037627;28;20236;-70
2022/09/25 02:30:56;;;;;;;3.75;1.70;;;;;;;21.54;47.27;101568.09;5031359;28;20044;-70
2022/09/25 02:33:23;;;;;;;2.28;1.88;;;;;;;21.54;47.26;101565.47;5037193;28;20071;-70
2022/09/25 02:35:48;;;;;;;3.35;1.90;;;;;;;21.53;47.24;101563.81;5033950;28;20123;-70
2022/09/25 02:38:14;;;;;;;2.30;1.70;;;;;;;21.51;47.04;101566.63;5038962;28;20051;-70
2022/09/25 02:40:50;;;;;;;1.70;1.60;;;;;;;21.50;47.06;101553.56;5043025;28;20139;-70
2022/09/25 02:43:37;;;;;;;2.63;1.65;;;;;;;21.49;47.31;101560.69;5042421;28;20555;-70
2022/09/25 02:46:21;;;;;;;3.33;1.70;;;;;;;21.50;47.26;101559.69;5040282;28;20048;-70
2022/09/25 02:48:53;;;;;;;3.53;2.10;;;;;;;21.51;47.15;101556.03;5037703;28;20045;-70
2022/09/25 02:51:36;;;;;;;2.25;1.48;;;;;;;21.54;47.15;101558.34;5038022;28;20045;-69
2022/09/25 02:54:11;;;;;;;2.92;1.70;;;;;;;21.50;47.33;101564.97;5041751;28;20675;-70
2022/09/25 02:56:46;;;;;;;3.47;1.70;;;;;;;21.44;47.20;101549.78;5034986;28;20390;-70
2022/09/25 02:59:21;;;;;;;3.05;1.73;;;;;;;21.49;47.24;101559.88;5037786;28;20049;-70
2022/09/25 03:01:48;;;;;;;3.33;1.63;;;;;;;21.53;46.90;101556.69;5058545;28;20043;-70
2022/09/25 03:04:16;;;;;;;3.20;1.60;;;;;;;21.48;47.06;101556.38;5034489;28;20045;-70
2022/09/25 03:06:43;;;;;;;2.85;1.88;;;;;;;21.48;47.22;101563.50;5038731;28;20029;-70
2022/09/25 03:09:10;;;;;;;2.42;1.60;;;;;;;21.47;47.32;101559.22;5037154;28;20044;-70
2022/09/25 03:11:41;;;;;;;2.75;1.60;;;;;;;21.46;46.92;101563.69;5044094;28;20057;-70
2022/09/25 03:14:06;;;;;;;2.78;1.80;;;;;;;21.43;47.17;101553.44;5039118;28;20037;-70
2022/09/25 03:16:56;;;;;;;1.77;1.58;;;;;;;21.44;47.04;101563.03;5037458;28;20521;-70
2022/09/25 03:19:24;;;;;;;3.05;1.75;;;;;;;21.48;47.20;101558.22;5038817;28;20029;-70
2022/09/25 03:21:53;;;;;;;2.28;1.60;;;;;;;21.48;46.88;101569.63;5041244;28;20044;-70
2022/09/25 03:24:18;;;;;;;3.15;1.75;;;;;;;21.42;47.19;101560.56;5049917;28;20068;-70
2022/09/25 03:26:44;;;;;;;2.05;1.58;;;;;;;21.42;47.17;101565.03;5034688;28;20402;-70
2022/09/25 03:29:14;;;;;;;3.42;1.60;;;;;;;21.45;47.22;101561.22;4994791;28;1208922;-70
2022/09/25 03:31:44;;;;;;;2.95;1.67;;;;;;;21.43;47.29;101558.75;5039312;28;20056;-70
2022/09/25 03:34:12;;;;;;;2.10;1.60;;;;;;;21.44;46.87;101562.22;5037822;28;20505;-70
2022/09/25 03:36:38;;;;;;;2.17;1.67;;;;;;;21.42;47.18;101560.56;5041512;28;20052;-70
2022/09/25 03:39:04;;;;;;;2.85;1.50;;;;;;;21.42;46.95;101560.56;5036068;28;20054;-70
2022/09/25 03:41:32;;;;;;;1.80;1.42;;;;;;;21.42;47.28;101560.56;5039080;28;20064;-70
2022/09/25 03:43:58;;;;;;;1.75;1.52;;;;;;;21.44;47.25;101568.34;5037025;28;20143;-70
2022/09/25 03:46:30;;;;;;;2.47;1.60;;;;;;;21.42;46.91;101563.22;5060439;28;20577;-70
2022/09/25 03:48:56;;;;;;;1.40;1.30;;;;;;;21.40;46.92;101559.91;5034500;28;20030;-70
2022/09/25 03:51:23;;;;;;;1.70;1.55;;;;;;;21.41;46.96;101564.22;5035883;28;20075;-70
2022/09/25 03:53:49;;;;;;;2.30;1.77;;;;;;;21.43;46.88;101561.38;5033515;28;20029;-70
2022/09/25 03:56:20;;;;;;;2.45;1.77;;;;;;;21.40;46.92;101561.75;5033514;28;20095;-70
2022/09/25 03:58:46;;;;;;;3.00;1.77;;;;;;;21.39;47.04;101560.91;5035059;28;20568;-70
2022/09/25 04:01:13;;;;;;;2.10;1.50;;;;;;;21.40;47.08;101559.91;5031613;28;20022;-70
2022/09/25 04:03:39;;;;;;;2.95;1.63;;;;;;;21.37;47.13;101559.44;5034471;28;20514;-70
2022/09/25 04:06:06;;;;;;;1.75;1.50;;;;;;;21.38;47.13;101561.91;5031467;28;20036;-70
2022/09/25 04:08:34;;;;;;;2.63;1.60;;;;;;;21.39;47.14;101558.25;5029056;28;20066;-70
2022/09/25 04:11:01;;;;;;;1.83;1.50;;;;;;;21.39;47.13;101560.91;5033248;28;20047;-71
2022/09/25 04:13:32;;;;;;;2.13;1.35;;;;;;;21.32;47.19;101551.97;5031116;28;20056;-71
2022/09/25 04:16:00;;;;;;;1.95;1.58;;;;;;;21.36;46.96;101553.31;5030924;28;20490;-70
2022/09/25 04:18:30;;;;;;;2.80;1.40;;;;;;;21.35;47.17;101551.63;5031215;28;20033;-70
2022/09/25 04:21:04;;;;;;;2.65;1.42;;;;;;;21.35;47.11;101548.16;5036544;28;20053;-70
2022/09/25 04:23:31;;;;;;;2.70;1.38;;;;;;;21.34;47.32;101552.63;5037158;28;20041;-70
2022/09/25 04:25:56;;;;;;;1.90;1.52;;;;;;;21.38;46.85;101546.00;5039712;28;20032;-70
2022/09/25 04:28:23;;;;;;;2.17;1.30;;;;;;;21.35;46.96;101548.16;5035539;28;20037;-71
2022/09/25 04:30:49;;;;;;;2.22;1.30;;;;;;;21.34;46.92;101541.22;5035766;28;20069;-70
2022/09/25 04:36:03;;;;;;;1.77;1.45;;;;;;;21.35;46.80;101546.34;5033250;28;21555;-71
2022/09/25 04:38:31;;;;;;;1.87;1.20;;;;;;;21.33;46.90;101536.91;5037702;28;20060;-71
2022/09/25 04:41:00;;;;;;;1.75;1.33;;;;;;;21.32;46.88;101537.91;5033798;28;20475;-72
2022/09/25 04:43:30;;;;;;;1.65;1.30;;;;;;;21.31;46.93;101525.66;5036104;28;20612;-71
2022/09/25 04:46:03;;;;;;;1.30;1.20;;;;;;;21.34;47.11;101536.75;5034958;28;20037;-71
2022/09/25 04:48:29;;;;;;;2.30;1.40;;;;;;;21.33;46.94;101535.09;5040235;28;20471;-71
2022/09/25 04:50:57;;;;;;;2.65;1.33;;;;;;;21.30;46.82;101529.31;5032448;28;20498;-70
2022/09/25 04:53:24;;;;;;;1.38;1.17;;;;;;;21.33;47.02;101528.97;5033288;28;20525;-71
2022/09/25 04:55:50;;;;;;;2.28;1.70;;;;;;;21.20;47.10;101513.63;5030604;28;20037;-70
2022/09/25 04:58:16;;;;;;;1.17;0.98;;;;;;;21.29;47.03;101533.78;5036336;28;20493;-72
2022/09/25 05:00:41;;;;;;;1.98;1.50;;;;;;;21.29;47.08;101531.13;5033801;28;20228;-71
2022/09/25 05:03:07;;;;;;;2.78;1.30;;;;;;;21.33;46.78;101526.31;5038203;28;20146;-71
2022/09/25 05:05:32;;;;;;;2.30;1.35;;;;;;;21.27;47.04;101530.50;5039800;28;20396;-71
2022/09/25 05:08:00;;;;;;;1.52;1.17;;;;;;;21.28;46.98;101518.06;5036249;28;20039;-70
2022/09/25 05:10:28;;;;;;;2.25;1.75;;;;;;;21.26;47.07;101528.84;5039735;28;20494;-70
2022/09/25 05:12:59;;;;;;;2.28;1.35;;;;;;;21.27;47.06;101533.13;5039402;28;20056;-70
2022/09/25 05:15:26;;;;;;;2.88;1.33;;;;;;;21.28;46.77;101521.53;5036530;28;20666;-71
2022/09/25 05:18:18;;;;;;;2.13;1.42;;;;;;;21.27;47.06;101530.50;5034346;28;20045;-70
2022/09/25 05:20:44;;;;;;;2.25;1.30;;;;;;;21.24;47.29;101529.97;5029591;28;20466;-70
2022/09/25 05:23:09;;;;;;;1.80;1.13;;;;;;;21.25;47.25;101536.97;5030458;28;20034;-71
2022/09/25 05:25:35;;;;;;;2.35;1.50;;;;;;;21.21;47.18;101532.97;5032130;28;20052;-70
2022/09/25 05:28:00;;;;;;;3.33;1.60;;;;;;;21.29;46.76;101540.91;5028486;28;20057;-70
2022/09/25 05:30:29;;;;;;;2.15;1.15;;;;;;;21.28;47.00;101533.97;5029545;28;20044;-70
2022/09/25 05:32:58;;;;;;;3.30;1.40;;;;;;;21.24;46.81;101533.50;5029633;28;20431;-70
2022/09/25 05:35:25;;;;;;;1.63;1.25;;;;;;;21.27;46.83;101534.97;5030079;28;20045;-71
2022/09/25 05:37:51;;;;;;;3.38;1.15;;;;;;;21.17;46.91;101534.28;5031618;28;20640;-70
2022/09/25 05:40:19;;;;;;;1.55;1.10;;;;;;;21.26;46.84;101549.22;5042494;28;20052;-70
2022/09/25 05:42:46;;;;;;;1.13;1.02;;;;;;;21.20;47.09;101545.41;5040641;28;20037;-70
2022/09/25 05:45:12;;;;;;;1.00;1.00;;;;;;;21.26;46.80;101552.69;5036561;28;20608;-71
2022/09/25 05:47:39;;;;;;;2.22;1.40;;;;;;;21.25;47.14;101552.84;5039812;28;20421;-70
2022/09/25 05:50:05;;;;;;;1.50;1.25;;;;;;;21.23;46.72;101550.34;5039625;28;20099;-71
2022/09/25 05:52:31;;;;;;;1.60;1.10;;;;;;;21.25;46.78;101555.50;5033125;28;20049;-70
2022/09/25 05:54:56;;;;;;;1.30;1.20;;;;;;;21.23;46.86;101554.81;5037991;28;20494;-71
2022/09/25 05:57:22;;;;;;;1.88;1.17;;;;;;;21.21;47.09;101556.81;5033723;28;20128;-70
2022/09/25 05:59:48;;;;;;;1.58;1.10;;;;;;;21.24;46.89;101553.81;5046180;28;20121;-71
2022/09/25 06:02:15;;;;;;;1.73;1.10;;;;;;;21.19;47.04;101553.50;5037106;28;20125;-70
2022/09/25 06:04:40;;;;;;;1.75;1.30;;;;;;;21.24;46.73;101551.16;5044540;28;20055;-70
2022/09/25 06:07:08;;;;;;;2.20;1.38;;;;;;;21.22;47.03;101554.00;5060215;28;20036;-70
2022/09/25 06:09:34;;;;;;;1.13;1.02;;;;;;;21.24;46.88;101557.31;5058137;28;20047;-70
2022/09/25 06:12:00;;;;;;;1.83;1.30;;;;;;;21.19;47.05;101546.41;5036195;28;20030;-71
2022/09/25 06:14:26;;;;;;;1.15;1.05;;;;;;;21.21;47.02;101547.03;5033277;28;20203;-70
2022/09/25 06:16:51;;;;;;;1.08;0.98;;;;;;;21.23;46.97;101550.34;5031984;28;20049;-70
2022/09/25 06:19:17;;;;;;;1.88;1.20;;;;;;;21.21;47.00;101552.34;5031193;28;20041;-71
2022/09/25 06:21:43;;;;;;;1.45;1.35;;;;;;;21.18;47.21;101549.19;5039847;28;20052;-69
2022/09/25 06:24:09;;;;;;;1.05;1.00;;;;;;;21.19;46.83;101543.75;5038955;28;20059;-71
2022/09/25 06:26:35;;;;;;;1.85;1.40;;;;;;;21.22;46.72;101545.22;5038759;28;20075;-70
2022/09/25 06:29:02;;;;;;;1.55;1.00;;;;;;;21.24;46.68;101552.03;5041210;28;20053;-71
2022/09/25 06:31:27;;;;;;;1.38;1.23;;;;;;;21.23;46.70;101550.34;5029678;28;20049;-70
2022/09/25 06:33:53;;;;;;;1.05;0.82;;;;;;;21.24;46.88;101548.53;5038447;28;20049;-70
2022/09/25 06:36:18;;;;;;;2.15;1.08;;;;;;;21.23;46.90;101536.28;5048560;28;20079;-70
2022/09/25 06:38:44;;;;;;;2.35;1.27;;;;;;;21.22;47.07;101543.41;5036277;28;20399;-68
2022/09/25 06:41:11;;;;;;;1.00;1.00;;;;;;;21.22;46.73;101539.94;5036488;28;20064;-70
2022/09/25 06:43:36;;;;;;;1.83;1.00;;;;;;;21.22;46.57;101546.06;5034584;28;20141;-70
2022/09/25 06:46:02;;;;;;;2.67;1.10;;;;;;;21.22;46.61;101546.06;5041136;28;20045;-70
2022/09/25 06:48:29;;;;;;;1.15;0.68;;;;;;;21.24;46.56;101548.53;5035274;28;20402;-70
2022/09/25 06:50:57;;;;;;;1.95;1.00;;;;;;;21.23;46.47;101545.06;5033116;28;20044;-70
2022/09/25 06:53:24;;;;;;;1.25;0.88;;;;;;;21.27;46.77;101545.56;5035101;28;20044;-70
2022/09/25 06:55:50;;;;;;;2.17;1.27;;;;;;;21.25;46.64;101545.72;5037062;28;20528;-70
2022/09/25 06:58:19;;;;;;;1.80;1.20;;;;;;;21.26;46.75;101546.56;5031519;28;20041;-70
2022/09/25 07:00:46;;;;;;;1.70;1.10;;;;;;;21.25;46.67;101531.66;5029814;28;20804;-70
2022/09/25 07:05:58;;;;;;;1.17;1.05;;;;;;;21.33;46.79;101537.75;5030004;28;20559;-70
2022/09/25 07:08:24;;;;;;;1.20;1.00;;;;;;;21.37;46.67;101541.72;5031438;28;20079;-70
2022/09/25 07:10:52;;;;;;;2.00;1.13;;;;;;;21.36;46.47;101549.81;5034766;28;20680;-71
2022/09/25 07:13:23;;;;;;;1.10;0.95;;;;;;;21.36;46.61;101541.88;5032950;28;20090;-70
2022/09/25 07:16:00;;;;;;;1.70;1.20;;;;;;;21.38;46.28;101543.38;5033846;28;20037;-70
2022/09/25 07:18:27;;;;;;;1.40;1.20;;;;;;;21.41;46.25;101539.53;5034725;28;20527;-70
2022/09/25 07:20:58;;;;;;;1.50;1.00;;;;;;;21.42;46.36;101539.38;5036962;28;20124;-70
2022/09/25 07:23:23;;;;;;;1.95;1.77;;;;;;;21.44;46.29;101541.00;5041262;28;20142;-71
2022/09/25 07:25:49;;;;;;;1.52;0.80;;;;;;;21.44;46.44;101538.38;5038057;28;20033;-70
2022/09/25 07:28:14;;;;;;;1.50;1.27;;;;;;;21.50;46.28;101540.31;5036863;28;20060;-70
2022/09/25 07:30:41;;;;;;;2.17;1.20;;;;;;;21.54;46.06;101545.09;5038708;28;20178;-70
2022/09/25 07:33:07;;;;;;;1.58;1.02;;;;;;;21.55;46.16;101552.06;5040511;28;20106;-69
2022/09/25 07:35:34;;;;;;;1.33;1.10;;;;;;;21.56;46.27;101544.94;5034575;28;20048;-69
2022/09/25 07:37:59;;;;;;;1.67;1.15;;;;;;;21.59;45.70;101548.06;5039516;28;20040;-69
2022/09/25 07:40:27;;;;;;;2.13;1.40;;;;;;;21.63;46.01;101559.13;5057257;28;20067;-69
2022/09/25 07:43:00;;;;;;;1.35;0.90;;;;;;;21.64;45.74;101552.84;5038756;28;20052;-69
2022/09/25 07:45:26;;;;;;;1.70;1.50;;;;;;;21.64;45.91;101558.13;5042891;28;20041;-69
2022/09/25 07:48:02;;;;;;;2.63;1.27;;;;;;;21.67;45.90;101563.09;5036630;28;21688;-69
2022/09/25 07:50:32;;;;;;;1.40;1.13;;;;;;;21.57;46.10;101552.72;5041802;28;20024;-69
2022/09/25 07:52:58;;;;;;;1.52;1.42;;;;;;;21.68;46.18;101557.59;5049863;28;20043;-69
2022/09/25 07:55:24;;;;;;;1.65;1.20;;;;;;;21.69;45.95;101556.59;5048999;28;20044;-69
2022/09/25 07:57:50;;;;;;;3.08;1.50;;;;;;;21.68;45.95;101547.00;5040421;28;20483;-69
2022/09/25 08:00:17;;;;;;;1.63;1.20;;;;;;;21.67;45.83;101553.31;5046956;28;20112;-70
2022/09/25 08:02:42;;;;;;;3.50;1.50;;;;;;;21.73;45.90;101557.09;5039330;28;20036;-71
2022/09/25 08:05:09;;;;;;;2.42;1.00;;;;;;;21.79;45.77;101553.75;5050677;28;20051;-70
2022/09/25 08:07:34;;;;;;;2.65;1.40;;;;;;;21.81;45.69;101554.38;5039883;28;20450;-69
2022/09/25 08:10:02;;;;;;;2.53;1.50;;;;;;;21.80;45.63;101557.22;5048205;28;20496;-70
2022/09/25 08:12:28;;;;;;;2.60;1.10;;;;;;;21.79;45.50;101550.25;5038054;28;20051;-69
2022/09/25 08:14:53;;;;;;;1.17;0.90;;;;;;;21.85;45.86;101561.00;5048732;28;20489;-69
2022/09/25 08:17:19;;;;;;;1.23;1.13;;;;;;;21.81;45.66;101559.69;5039744;28;20422;-69
2022/09/25 08:19:48;;;;;;;3.08;1.48;;;;;;;21.85;45.52;101565.47;5042980;28;20052;-70
2022/09/25 08:22:13;;;;;;;2.63;1.38;;;;;;;21.87;45.52;101566.94;5047020;28;20044;-69
2022/09/25 08:24:39;;;;;;;1.45;1.05;;;;;;;21.86;45.60;101557.34;5034696;28;20045;-70
2022/09/25 08:27:06;;;;;;;2.72;1.17;;;;;;;21.88;45.72;101557.16;5043326;28;20034;-70
2022/09/25 08:29:32;;;;;;;0.98;0.80;;;;;;;21.90;45.78;101560.44;5050534;28;20123;-70
2022/09/25 08:31:58;;;;;;;2.53;1.20;;;;;;;21.90;45.82;101561.31;5043702;28;20504;-70
2022/09/25 08:34:24;;;;;;;1.25;1.10;;;;;;;21.90;45.49;101557.81;5042155;28;20045;-70
2022/09/25 08:36:53;;;;;;;1.75;0.85;;;;;;;21.90;45.47;101553.34;5049268;28;20183;-69
2022/09/25 08:39:20;;;;;;;2.00;1.10;;;;;;;21.91;45.36;101555.00;5037871;28;20028;-70
2022/09/25 08:41:50;;;;;;;1.90;1.25;;;;;;;21.92;45.74;101548.69;5042656;28;20045;-71
2022/09/25 08:44:24;;;;;;;3.35;1.42;;;;;;;21.93;45.43;101549.53;5038010;28;20423;-70
2022/09/25 08:50:10;;;;;;;2.08;1.00;;;;;;;21.94;45.39;101551.16;5042021;28;20151;-71
2022/09/25 08:52:40;;;;;;;1.25;1.00;;;;;;;21.94;45.67;101549.34;5045856;28;20071;-71
2022/09/25 08:58:24;;;;;;;2.70;1.38;;;;;;;21.96;45.40;101554.47;5041054;28;20485;-70
2022/09/25 09:00:57;;;;;;;2.22;1.00;;;;;;;21.98;45.25;101547.16;5042754;28;20043;-70
2022/09/25 09:03:24;;;;;;;1.42;0.90;;;;;;;22.00;45.53;101558.41;5045321;28;20035;-70
2022/09/25 09:05:59;;;;;;;1.02;0.75;;;;;;;21.99;45.52;101551.47;5035936;28;20060;-70
2022/09/25 09:08:32;;;;;;;0.90;0.85;;;;;;;21.99;45.17;101556.75;5036515;28;20033;-71
2022/09/25 09:11:13;;;;;;;1.67;0.80;;;;;;;22.00;45.42;101563.72;5031394;28;20045;-70
2022/09/25 09:14:03;;;;;;;2.03;1.27;;;;;;;21.99;45.35;101565.53;5035019;28;20037;-70
2022/09/25 09:16:44;;;;;;;4.13;1.20;;;;;;;21.98;45.65;101579.81;5030353;28;20084;-70
2022/09/25 09:19:11;;;;;;;1.70;0.85;;;;;;;21.98;45.14;101579.81;5034453;28;20040;-70
2022/09/25 09:21:43;;;;;;;2.28;1.10;;;;;;;21.97;45.48;101574.69;5037680;28;20057;-70
2022/09/25 09:24:34;;;;;;;2.33;1.00;;;;;;;21.97;45.43;101580.81;5038170;28;20408;-69
2022/09/25 09:27:17;;;;;;;2.25;1.02;;;;;;;21.99;45.39;101580.63;5036836;28;20039;-70
2022/09/25 09:30:07;;;;;;;1.23;0.98;;;;;;;21.97;45.28;101585.28;5034812;28;20049;-70
2022/09/25 09:32:45;;;;;;;1.77;1.10;;;;;;;21.99;45.31;101588.59;5029921;28;20037;-70
2022/09/25 09:35:26;;;;;;;1.15;0.95;;;;;;;21.96;45.34;101583.63;5024934;28;20418;-70
2022/09/25 09:37:55;;;;;;;1.63;1.15;;;;;;;21.96;45.55;101573.84;5040442;28;20040;-70
2022/09/25 09:40:39;;;;;;;1.92;0.95;;;;;;;21.96;45.79;101570.38;5038598;28;20486;-70
2022/09/25 09:43:17;;;;;;;1.05;0.60;;;;;;;21.95;45.76;101566.06;5043272;28;20056;-69
2022/09/25 09:45:54;;;;;;;1.75;1.45;;;;;;;21.93;45.69;101566.25;5038925;28;20041;-69
2022/09/25 09:48:51;;;;;;;1.17;1.00;;;;;;;21.96;45.69;101559.78;5042183;28;20033;-70
2022/09/25 09:51:25;;;;;;;3.20;1.65;;;;;;;21.93;45.84;101555.66;5034113;28;20044;-69
2022/09/25 09:53:57;;;;;;;3.38;1.73;;;;;;;21.95;45.50;101563.44;5034623;28;20115;-69
2022/09/25 09:56:26;;;;;;;2.65;1.65;;;;;;;21.96;45.91;101565.91;5045692;28;20471;-69
2022/09/25 09:58:56;;;;;;;2.50;1.40;;;;;;;21.93;45.71;101570.72;5048920;28;20036;-71
2022/09/25 10:01:38;;;;;;;2.13;1.00;;;;;;;21.91;46.01;101573.56;5046929;28;20025;-70
2022/09/25 10:04:28;;;;;;;2.20;1.13;;;;;;;21.93;46.05;101571.56;5041909;28;20068;-70
2022/09/25 10:07:03;;;;;;;2.50;1.40;;;;;;;21.93;45.71;101568.09;5046584;28;20051;-69
2022/09/25 10:09:28;;;;;;;1.65;1.15;;;;;;;21.93;45.57;101562.78;5050290;28;20032;-70
2022/09/25 10:12:25;;;;;;;3.20;1.60;;;;;;;21.93;45.64;101557.47;5039432;28;20402;-70
2022/09/25 10:14:51;;;;;;;3.17;1.23;;;;;;;21.92;45.88;101545.22;5042451;28;20048;-70
2022/09/25 10:17:18;;;;;;;1.92;1.10;;;;;;;21.95;45.75;101548.34;5044169;28;20867;-69
2022/09/25 10:20:18;;;;;;;1.70;1.30;;;;;;;21.96;45.86;101547.34;5051470;28;20130;-70
2022/09/25 10:22:45;;;;;;;2.20;1.30;;;;;;;21.95;45.52;101550.16;5042113;28;20491;-70
2022/09/25 10:25:10;;;;;;;2.40;1.08;;;;;;;21.98;45.39;101549.81;5044131;28;20045;-70
2022/09/25 10:27:44;;;;;;;1.98;1.25;;;;;;;21.97;45.45;101550.81;5044385;28;20048;-70
2022/09/25 10:30:10;;;;;;;3.00;1.60;;;;;;;21.96;45.92;101543.84;5040843;28;20591;-70
2022/09/25 10:33:01;;;;;;;2.10;0.93;;;;;;;21.98;45.63;101541.84;5040311;28;20055;-70
2022/09/25 10:35:36;;;;;;;2.58;1.10;;;;;;;21.95;45.93;101537.72;5037741;28;20045;-70
2022/09/25 10:38:03;;;;;;;2.45;1.30;;;;;;;21.95;45.77;101537.72;5040071;28;21483;-70
2022/09/25 10:40:38;;;;;;;2.00;1.13;;;;;;;21.95;45.77;101540.38;5037101;28;20089;-70
2022/09/25 10:43:05;;;;;;;1.10;1.00;;;;;;;21.94;45.52;101538.72;5041327;28;20266;-70
2022/09/25 10:45:34;;;;;;;2.50;1.40;;;;;;;21.97;45.70;101537.56;5037375;28;20051;-70
2022/09/25 10:51:04;;;;;;;1.67;1.00;;;;;;;21.96;45.42;101535.91;5040592;28;20048;-71
2022/09/25 10:53:30;;;;;;;2.00;1.05;;;;;;;21.98;45.52;101533.91;5046571;28;20044;-69
2022/09/25 10:56:12;;;;;;;1.35;1.00;;;;;;;21.95;45.76;101534.25;5041475;28;20160;-70
2022/09/25 10:58:50;;;;;;;1.33;1.00;;;;;;;21.98;45.32;101534.72;5042780;28;20961;-70
2022/09/25 11:01:16;;;;;;;2.05;1.33;;;;;;;21.98;45.59;101520.63;5040311;28;20051;-69
2022/09/25 11:04:04;;;;;;;1.88;1.25;;;;;;;21.98;45.25;101529.41;5037422;28;20049;-69
2022/09/25 11:06:33;;;;;;;1.25;0.95;;;;;;;21.96;45.54;101517.34;5038036;28;20095;-69
2022/09/25 11:09:16;;;;;;;3.00;1.20;;;;;;;21.98;45.31;101518.81;5039801;28;20033;-70
2022/09/25 11:11:44;;;;;;;4.22;1.52;;;;;;;21.97;45.22;101514.50;5036514;28;20469;-69
2022/09/25 11:14:22;;;;;;;2.55;1.15;;;;;;;21.99;45.43;101511.69;5044808;28;20036;-70
2022/09/25 11:16:56;;;;;;;1.38;1.00;;;;;;;21.97;45.48;101514.50;5039891;28;20029;-70
2022/09/25 11:19:29;;;;;;;1.70;1.20;;;;;;;21.97;45.32;101514.50;5041640;28;20037;-69
2022/09/25 11:22:06;;;;;;;3.55;1.55;;;;;;;21.98;45.61;101516.16;5037480;28;20612;-69
2022/09/25 11:25:12;;;;;;;3.25;1.73;;;;;;;21.97;45.29;101506.56;5037111;28;20033;-70
2022/09/25 11:27:47;;;;;;;2.75;1.40;;;;;;;21.95;45.56;101500.59;5040943;28;20527;-70
2022/09/25 11:30:17;;;;;;;3.78;1.80;;;;;;;21.99;45.37;101504.53;5035796;28;20045;-70
2022/09/25 11:32:48;;;;;;;2.28;1.13;;;;;;;22.01;45.44;101493.75;5039274;28;20119;-71
2022/09/25 11:35:41;;;;;;;1.92;1.17;;;;;;;22.00;45.64;101492.94;5039882;28;20036;-70
2022/09/25 11:41:36;;;;;;;4.10;1.48;;;;;;;21.97;45.46;101480.03;5040191;28;20457;-70
2022/09/25 11:44:21;;;;;;;1.30;1.20;;;;;;;22.02;45.66;101490.91;5039511;28;20056;-69
2022/09/25 11:46:50;;;;;;;2.10;1.38;;;;;;;22.00;45.43;101484.16;5042669;28;20638;-69
2022/09/25 11:49:22;;;;;;;2.75;1.30;;;;;;;21.98;45.81;101494.94;5034691;28;20040;-69
2022/09/25 11:52:04;;;;;;;1.70;1.00;;;;;;;21.99;45.58;101488.63;5034032;28;20436;-70
2022/09/25 11:54:44;;;;;;;1.98;1.30;;;;;;;22.01;45.42;101491.09;5039633;28;20094;-69
2022/09/25 11:57:42;;;;;;;3.58;1.50;;;;;;;22.00;45.27;101490.28;5041246;28;20044;-69
2022/09/25 12:00:11;;;;;;;3.83;1.70;;;;;;;21.97;45.50;101489.81;5042888;28;20032;-69
2022/09/25 12:02:43;;;;;;;2.33;1.40;;;;;;;21.99;45.71;101491.28;5035344;28;20154;-69
2022/09/25 12:05:23;;;;;;;2.53;1.30;;;;;;;21.99;45.65;101480.69;5045223;28;20346;-69
2022/09/25 12:08:14;;;;;;;2.15;1.00;;;;;;;21.98;45.84;101483.50;5043790;28;20374;-69